Adams, North Dakota
Current Conditions -  °F | °C
As of 11:55 PM on Sunday 19 Oct 2014 (Local Time) from KD55 Reporting Station
Clear Clear  
Wind Chill: 32°   Ceiling: Unl
Heat Index: 36°   Visibility: 10mi
Dew Point: 30°   Wind: 5mph
Humidity: 81%   Direction: 280°W
Pressure: 29.96"   Gusts: NA
Location:  48.42°N, 98.08°W
Report Text: KD55 200455Z AUTO 28004KT 10SM CLR 02/M01 A2996 RMK AO2
Loading
Personal Weather Stations






























Interactive Weather Map
Tropical Storm Tracking
New forecast layout! Learn more

10-Day Weather Forecast

Advertisements
Track Severe Weather on mobile